Time;durP1;ratioP1;P1;durP2;ratioP2;P2;SDS_P1;SDS_P2;PMS_P1;PMS_P2;Temp;Humidity;BMP_temperature;BMP_pressure;BME280_temperature;BME280_humidity;BME280_pressure;Samples;Min_cycle;Max_cycle;Signal;HPM_P1;HPM_P2
2023/12/23 00:00:48;;;;;;;;;;;;;;;8.40;73.18;96717.50;5007702;28;20402;-63
2023/12/23 00:03:36;;;;;;;;;;;;;;;8.31;73.61;96712.13;5008842;28;19930;-62
2023/12/23 00:06:25;;;;;;;;;;;;;;;8.16;74.09;96742.41;5002752;28;19983;-63
2023/12/23 00:09:15;;;;;;;;;;;;;;;8.06;74.36;96732.72;5004057;28;20019;-63
2023/12/23 00:12:03;;;;;;;;;;;;;;;8.07;75.40;96744.34;4998639;28;19925;-62
2023/12/23 00:14:51;;;;;;;;;;;;;;;7.96;75.62;96756.63;5001194;28;19948;-63
2023/12/23 00:17:39;;;;;;;;;;;;;;;7.83;75.82;96753.81;4998147;28;19937;-63
2023/12/23 00:20:27;;;;;;;;;;;;;;;7.80;75.58;96751.72;5002803;28;20380;-64
2023/12/23 00:23:17;;;;;;;;;;;;;;;7.90;75.33;96752.50;5001219;28;19952;-62
2023/12/23 00:26:05;;;;;;;;;;;;;;;7.82;74.66;96760.28;5006248;28;20379;-62
2023/12/23 00:28:54;;;;;;;;;;;;;;;7.82;74.30;96775.72;5000714;28;19973;-62
2023/12/23 00:31:42;;;;;;;;;;;;;;;7.78;74.70;96775.59;5007936;28;19925;-62
2023/12/23 00:34:31;;;;;;;;;;;;;;;7.72;75.40;96782.25;5001738;28;20028;-63
2023/12/23 00:37:20;;;;;;;;;;;;;;;7.58;74.48;96795.16;5002079;28;20358;-63
2023/12/23 00:40:10;;;;;;;;;;;;;;;7.53;75.09;96804.22;5007713;28;20462;-63
2023/12/23 00:42:58;;;;;;;;;;;;;;;7.51;75.45;96805.66;5006167;28;20053;-64
2023/12/23 00:45:48;;;;;;;;;;;;;;;7.53;75.65;96804.22;5003084;28;19932;-63
2023/12/23 00:48:37;;;;;;;;;;;;;;;7.53;75.99;96820.44;5002915;28;19926;-63
2023/12/23 00:51:25;;;;;;;;;;;;;;;7.50;76.52;96817.56;5000624;28;19941;-63
2023/12/23 00:54:14;;;;;;;;;;;;;;;7.41;76.91;96841.91;4997298;28;19932;-63
2023/12/23 00:57:04;;;;;;;;;;;;;;;7.29;76.17;96844.41;5005980;28;20521;-63
2023/12/23 00:59:54;;;;;;;;;;;;;;;7.30;77.03;96840.63;5002822;28;19932;-62
2023/12/23 01:02:44;;;;;;;;;;;;;;;7.29;76.92;96850.63;5008505;28;20402;-63
2023/12/23 01:05:32;;;;;;;;;;;;;;;7.33;76.83;96851.56;5004998;28;20059;-64
2023/12/23 01:08:20;;;;;;;;;;;;;;;7.32;76.44;96877.00;5008613;28;19930;-65
2023/12/23 01:11:08;;;;;;;;;;;;;;;7.25;76.51;96860.47;4999920;28;19925;-63
2023/12/23 01:13:57;;;;;;;;;;;;;;;7.23;76.54;96867.28;5006851;28;19930;-63
2023/12/23 01:16:45;;;;;;;;;;;;;;;7.16;76.41;96881.28;5015999;28;19952;-63
2023/12/23 01:19:33;;;;;;;;;;;;;;;7.17;76.59;96887.47;5008423;28;19996;-63
2023/12/23 01:22:21;;;;;;;;;;;;;;;7.24;76.17;96888.59;5006804;28;20011;-63
2023/12/23 01:25:09;;;;;;;;;;;;;;;7.20;76.67;96890.34;5008848;28;19925;-63
2023/12/23 01:28:04;;;;;;;;;;;;;;;7.17;76.03;96900.97;5009704;28;19929;-63
2023/12/23 01:30:53;;;;;;;;;;;;;;;7.11;76.02;96913.81;5006780;28;21884;-63
2023/12/23 01:33:41;;;;;;;;;;;;;;;7.14;75.38;96926.72;5009803;28;20020;-63
2023/12/23 01:36:29;;;;;;;;;;;;;;;7.10;76.08;96933.84;5007903;28;19925;-64
2023/12/23 01:39:19;;;;;;;;;;;;;;;7.12;76.76;96942.41;5010517;28;19934;-62
2023/12/23 01:42:09;;;;;;;;;;;;;;;7.11;77.09;96965.13;5007678;28;20406;-64
2023/12/23 01:44:57;;;;;;;;;;;;;;;7.14;76.64;96971.81;5010047;28;19929;-63
2023/12/23 01:47:47;;;;;;;;;;;;;;;7.10;76.59;96977.06;5007960;28;19929;-63
2023/12/23 01:50:36;;;;;;;;;;;;;;;7.08;76.73;96990.06;5002700;28;19973;-64
2023/12/23 01:53:24;;;;;;;;;;;;;;;7.04;76.44;96973.69;5007303;28;19929;-63
2023/12/23 01:56:12;;;;;;;;;;;;;;;7.00;76.86;96988.91;5003533;28;20699;-63
2023/12/23 01:59:02;;;;;;;;;;;;;;;7.08;76.37;96990.06;5008057;28;19965;-63
2023/12/23 02:01:52;;;;;;;;;;;;;;;7.03;76.15;97003.69;5007878;28;19929;-63
2023/12/23 02:04:41;;;;;;;;;;;;;;;7.04;76.12;97002.59;5009198;28;19929;-64
2023/12/23 02:07:29;;;;;;;;;;;;;;;7.00;76.25;97015.13;5002830;28;19930;-63
2023/12/23 02:10:17;;;;;;;;;;;;;;;7.05;76.59;97020.41;5003830;28;19933;-63
2023/12/23 02:13:09;;;;;;;;;;;;;;;7.04;76.13;97025.00;5003841;28;19926;-62
2023/12/23 02:16:00;;;;;;;;;;;;;;;7.04;76.00;97025.00;5004064;28;20304;-63
2023/12/23 02:18:48;;;;;;;;;;;;;;;7.01;75.45;97027.53;5004429;28;19938;-63
2023/12/23 02:21:37;;;;;;;;;;;;;;;7.09;75.09;97041.09;5005035;28;20466;-62
2023/12/23 02:24:27;;;;;;;;;;;;;;;7.08;74.69;97044.06;5000157;28;19926;-62
2023/12/23 02:27:15;;;;;;;;;;;;;;;7.01;74.25;97054.53;5024014;28;19929;-63
2023/12/23 02:30:03;;;;;;;;;;;;;;;7.00;74.73;97058.34;5008683;28;19930;-62
2023/12/23 02:32:51;;;;;;;;;;;;;;;7.09;74.86;97056.50;5005178;28;20294;-63
2023/12/23 02:35:40;;;;;;;;;;;;;;;7.10;75.01;97047.28;5004942;28;19925;-63
2023/12/23 02:38:30;;;;;;;;;;;;;;;7.04;74.42;97060.13;5003848;28;19929;-62
2023/12/23 02:41:18;;;;;;;;;;;;;;;7.05;74.43;97069.00;5006484;28;19929;-63
2023/12/23 02:44:07;;;;;;;;;;;;;;;7.03;74.23;97076.59;5005830;28;19933;-63
2023/12/23 02:46:55;;;;;;;;;;;;;;;7.00;74.43;97082.66;5006391;28;20537;-63
2023/12/23 02:49:44;;;;;;;;;;;;;;;6.94;74.67;97087.38;5006680;28;20485;-63
2023/12/23 02:52:32;;;;;;;;;;;;;;;6.93;74.99;97099.28;5004872;28;20384;-63
2023/12/23 02:55:21;;;;;;;;;;;;;;;6.93;74.67;97101.19;5005417;28;19926;-62
2023/12/23 02:58:10;;;;;;;;;;;;;;;6.92;74.91;97107.66;5007933;28;19940;-63
2023/12/23 03:00:58;;;;;;;;;;;;;;;6.92;74.41;97099.56;5006487;28;19929;-63
2023/12/23 03:03:46;;;;;;;;;;;;;;;6.94;74.30;97118.97;5006091;28;19945;-62
2023/12/23 03:06:35;;;;;;;;;;;;;;;6.87;74.07;97113.19;5001084;28;19993;-63
2023/12/23 03:09:23;;;;;;;;;;;;;;;6.88;73.66;97120.22;5009640;28;19932;-63
2023/12/23 03:12:12;;;;;;;;;;;;;;;6.77;73.57;97115.06;5007983;28;19948;-63
2023/12/23 03:15:00;;;;;;;;;;;;;;;6.82;73.06;97116.84;5005635;28;20301;-64
2023/12/23 03:17:48;;;;;;;;;;;;;;;6.79;73.12;97107.44;5002274;28;19925;-64
2023/12/23 03:20:37;;;;;;;;;;;;;;;6.81;72.97;97115.22;5005110;28;20699;-63
2023/12/23 03:23:25;;;;;;;;;;;;;;;6.82;72.53;97112.22;5005392;28;19925;-63
2023/12/23 03:26:13;;;;;;;;;;;;;;;6.86;72.99;97108.91;5005305;28;19934;-63
2023/12/23 03:29:03;;;;;;;;;;;;;;;6.86;72.70;97120.50;5008021;28;19968;-63
2023/12/23 03:31:52;;;;;;;;;;;;;;;6.91;72.77;97120.38;4999842;28;19929;-63
2023/12/23 03:34:41;;;;;;;;;;;;;;;6.90;72.22;97118.00;5003336;28;19929;-63
2023/12/23 03:37:29;;;;;;;;;;;;;;;6.85;71.91;97116.22;5007806;28;19926;-63
2023/12/23 03:40:17;;;;;;;;;;;;;;;6.83;72.65;97108.41;5009802;28;19925;-63
2023/12/23 03:43:05;;;;;;;;;;;;;;;6.84;72.38;97109.22;5006956;28;19930;-63
2023/12/23 03:45:54;;;;;;;;;;;;;;;6.87;72.91;97118.59;5005846;28;19929;-63
2023/12/23 03:48:43;;;;;;;;;;;;;;;6.90;72.99;97120.69;5001356;28;19976;-63
2023/12/23 03:51:30;;;;;;;;;;;;;;;6.91;72.50;97119.59;5016949;28;19929;-62
2023/12/23 03:54:19;;;;;;;;;;;;;;;6.89;72.91;97111.78;5008978;28;19932;-62
2023/12/23 03:57:07;;;;;;;;;;;;;;;6.88;72.83;97118.31;5004917;28;19933;-64
2023/12/23 03:59:57;;;;;;;;;;;;;;;6.91;72.84;97106.09;5006630;28;19930;-63
2023/12/23 04:02:46;;;;;;;;;;;;;;;6.85;72.73;97110.81;4997792;28;20016;-63
2023/12/23 04:05:35;;;;;;;;;;;;;;;6.89;72.46;97101.00;5002389;28;19980;-63
2023/12/23 04:08:23;;;;;;;;;;;;;;;6.88;72.46;97109.41;5007153;28;19938;-62
2023/12/23 04:11:11;;;;;;;;;;;;;;;6.87;72.58;97102.38;5006134;28;19940;-62
2023/12/23 04:13:59;;;;;;;;;;;;;;;6.88;72.44;97112.13;4998646;28;19998;-62
2023/12/23 04:16:47;;;;;;;;;;;;;;;6.87;72.12;97113.19;5000521;28;19926;-62
2023/12/23 04:19:36;;;;;;;;;;;;;;;6.89;72.53;97108.31;5001824;28;20023;-63
2023/12/23 04:22:24;;;;;;;;;;;;;;;6.93;71.76;97114.69;5003595;28;20076;-63
2023/12/23 04:25:13;;;;;;;;;;;;;;;6.86;71.57;97117.00;5003344;28;19940;-63
2023/12/23 04:28:02;;;;;;;;;;;;;;;6.88;72.65;97114.81;5003597;28;19941;-62
2023/12/23 04:30:53;;;;;;;;;;;;;;;6.94;72.52;97118.97;4999270;28;19933;-62
2023/12/23 04:33:42;;;;;;;;;;;;;;;6.90;72.70;97118.00;5005162;28;20023;-62
2023/12/23 04:36:31;;;;;;;;;;;;;;;6.86;72.92;97117.00;5004400;28;19932;-62
2023/12/23 04:39:19;;;;;;;;;;;;;;;6.97;72.77;97112.94;4999404;28;19965;-62
2023/12/23 04:42:11;;;;;;;;;;;;;;;6.99;73.42;97119.66;4999801;28;19929;-63
2023/12/23 04:45:00;;;;;;;;;;;;;;;7.05;73.48;97104.91;4998982;28;19929;-63
2023/12/23 04:47:48;;;;;;;;;;;;;;;7.11;73.85;97102.88;5006577;28;19926;-63
2023/12/23 04:50:36;;;;;;;;;;;;;;;7.06;74.24;97111.13;5006256;28;19936;-63
2023/12/23 04:53:26;;;;;;;;;;;;;;;6.91;74.53;97117.69;5000254;28;20465;-62
2023/12/23 04:56:14;;;;;;;;;;;;;;;6.89;75.35;97102.91;5001710;28;20421;-64
2023/12/23 04:59:02;;;;;;;;;;;;;;;6.92;75.60;97102.28;5006162;28;20067;-64
2023/12/23 05:01:50;;;;;;;;;;;;;;;6.83;75.97;97107.63;5005414;28;20379;-64
2023/12/23 05:04:38;;;;;;;;;;;;;;;6.82;76.56;97106.84;5008683;28;19925;-64
2023/12/23 05:07:27;;;;;;;;;;;;;;;6.89;76.75;97111.00;5005645;28;19929;-63
2023/12/23 05:10:16;;;;;;;;;;;;;;;6.92;76.90;97099.56;5009383;28;19932;-64
2023/12/23 05:13:04;;;;;;;;;;;;;;;7.01;76.39;97092.34;5006131;28;20406;-64
2023/12/23 05:15:53;;;;;;;;;;;;;;;7.05;76.37;97083.31;5004883;28;20055;-64
2023/12/23 05:18:41;;;;;;;;;;;;;;;7.17;76.21;97063.03;5008116;28;19925;-64
2023/12/23 05:21:29;;;;;;;;;;;;;;;7.28;75.60;97070.56;5003710;28;19930;-64
2023/12/23 05:24:17;;;;;;;;;;;;;;;7.39;74.66;97060.28;5008705;28;20004;-64
2023/12/23 05:27:07;;;;;;;;;;;;;;;7.50;74.75;97058.09;5006450;28;20020;-64
2023/12/23 05:29:57;;;;;;;;;;;;;;;7.58;74.55;97052.75;5006324;28;19926;-64
2023/12/23 05:32:45;;;;;;;;;;;;;;;7.66;74.26;97047.66;5006342;28;19933;-64
2023/12/23 05:35:33;;;;;;;;;;;;;;;7.69;74.41;97037.03;5002187;28;20735;-63
2023/12/23 05:38:21;;;;;;;;;;;;;;;7.76;74.17;97037.38;5006500;28;19976;-64
2023/12/23 05:41:10;;;;;;;;;;;;;;;7.75;74.49;97033.06;5005138;28;19933;-64
2023/12/23 05:43:59;;;;;;;;;;;;;;;7.79;74.13;97023.22;5007694;28;19960;-63
2023/12/23 05:46:47;;;;;;;;;;;;;;;7.84;74.41;97028.50;5007528;28;19945;-64
2023/12/23 05:49:35;;;;;;;;;;;;;;;7.97;74.08;97021.34;5000843;28;19956;-63
2023/12/23 05:52:23;;;;;;;;;;;;;;;7.98;73.62;97019.44;5009942;28;19937;-64
2023/12/23 05:55:11;;;;;;;;;;;;;;;7.87;74.04;97014.31;5010767;28;19926;-64
2023/12/23 05:57:59;;;;;;;;;;;;;;;8.04;73.79;97004.63;5005660;28;19929;-63
2023/12/23 06:00:49;;;;;;;;;;;;;;;7.92;74.17;97007.97;5005038;28;20008;-63
2023/12/23 06:03:37;;;;;;;;;;;;;;;8.01;74.06;97010.69;5005585;28;20030;-64
2023/12/23 06:06:25;;;;;;;;;;;;;;;7.98;74.23;97000.50;5007207;28;20397;-64
2023/12/23 06:09:13;;;;;;;;;;;;;;;7.98;74.41;96989.69;5007607;28;20310;-65
2023/12/23 06:12:02;;;;;;;;;;;;;;;8.06;74.06;97005.13;5009610;28;19988;-64
2023/12/23 06:14:54;;;;;;;;;;;;;;;8.10;74.08;96998.00;5007611;28;19925;-64
2023/12/23 06:17:45;;;;;;;;;;;;;;;8.20;73.93;97000.34;5001323;28;20023;-64
2023/12/23 06:20:33;;;;;;;;;;;;;;;8.10;73.97;96985.25;5010255;28;19936;-64
2023/12/23 06:23:21;;;;;;;;;;;;;;;8.16;73.98;96998.63;5009516;28;19940;-63
2023/12/23 06:26:10;;;;;;;;;;;;;;;8.25;73.57;96996.69;5002536;28;20026;-64
2023/12/23 06:28:59;;;;;;;;;;;;;;;8.31;73.45;96993.53;5009047;28;20306;-62
2023/12/23 06:31:47;;;;;;;;;;;;;;;8.33;72.74;97012.94;5002385;28;19979;-62
2023/12/23 06:34:36;;;;;;;;;;;;;;;8.49;72.58;97009.78;5010170;28;19926;-64
2023/12/23 06:37:25;;;;;;;;;;;;;;;8.51;72.61;97002.94;5008323;28;20319;-62
2023/12/23 06:40:15;;;;;;;;;;;;;;;8.63;71.84;96986.84;5010395;28;19992;-62
2023/12/23 06:43:03;;;;;;;;;;;;;;;8.56;72.27;96973.00;5006891;28;19933;-62
2023/12/23 06:46:11;;;;;;;;;;;;;;;8.55;71.93;96970.63;5008718;28;19925;-62
2023/12/23 06:48:59;;;;;;;;;;;;;;;8.56;71.79;96977.63;5006894;28;20064;-63
2023/12/23 06:51:49;;;;;;;;;;;;;;;8.59;71.54;96961.53;5003810;28;20025;-64
2023/12/23 06:54:37;;;;;;;;;;;;;;;8.60;71.64;96962.31;5003770;28;19926;-62
2023/12/23 06:57:25;;;;;;;;;;;;;;;8.61;71.32;96969.31;5003894;28;19937;-64
2023/12/23 07:00:13;;;;;;;;;;;;;;;8.56;71.83;96973.00;4999921;28;20450;-65
2023/12/23 07:03:01;;;;;;;;;;;;;;;8.53;72.04;96954.69;5002705;28;19936;-61
2023/12/23 07:05:49;;;;;;;;;;;;;;;8.51;72.04;96954.22;4999349;28;19937;-62
2023/12/23 07:08:38;;;;;;;;;;;;;;;8.55;71.90;96957.88;5007213;28;19934;-62
2023/12/23 07:11:26;;;;;;;;;;;;;;;8.59;71.90;96956.13;5005694;28;19929;-61
2023/12/23 07:14:14;;;;;;;;;;;;;;;8.70;71.58;96953.06;5000752;28;19984;-62
2023/12/23 07:17:02;;;;;;;;;;;;;;;8.55;72.03;96957.88;5007437;28;20296;-62
2023/12/23 07:19:50;;;;;;;;;;;;;;;8.49;72.50;96961.88;5006307;28;19929;-61
2023/12/23 07:22:39;;;;;;;;;;;;;;;8.53;72.93;96962.03;5007793;28;20300;-62
2023/12/23 07:25:28;;;;;;;;;;;;;;;8.38;72.59;96956.00;5003550;28;19940;-63
2023/12/23 07:28:16;;;;;;;;;;;;;;;8.36;73.14;96947.41;5004997;28;19926;-63
2023/12/23 07:31:04;;;;;;;;;;;;;;;8.33;72.99;96942.59;5004058;28;19933;-63
2023/12/23 07:33:53;;;;;;;;;;;;;;;8.38;73.22;96942.47;5005086;28;19929;-63
2023/12/23 07:36:41;;;;;;;;;;;;;;;8.37;73.31;96942.78;5001150;28;19929;-62
2023/12/23 07:39:30;;;;;;;;;;;;;;;8.37;73.33;96945.50;5005686;28;19935;-62
2023/12/23 07:42:20;;;;;;;;;;;;;;;8.22;73.48;96954.84;5002292;28;20063;-62
2023/12/23 07:45:09;;;;;;;;;;;;;;;8.20;73.72;96958.97;5006297;28;19977;-63
2023/12/23 07:47:57;;;;;;;;;;;;;;;8.28;73.67;96940.03;5002430;28;19926;-61
2023/12/23 07:50:45;;;;;;;;;;;;;;;8.29;73.68;96938.94;5002505;28;19936;-61
2023/12/23 07:53:33;;;;;;;;;;;;;;;8.23;73.59;96958.34;5006274;28;20601;-61
2023/12/23 07:56:22;;;;;;;;;;;;;;;8.20;73.93;96938.13;5006663;28;19929;-63
2023/12/23 07:59:12;;;;;;;;;;;;;;;8.16;74.25;96939.91;5004228;28;19929;-63
2023/12/23 08:02:00;;;;;;;;;;;;;;;8.11;74.61;96940.06;5003351;28;19932;-64
2023/12/23 08:04:48;;;;;;;;;;;;;;;8.12;74.56;96944.34;5006773;28;19929;-64
2023/12/23 08:07:37;;;;;;;;;;;;;;;8.12;75.03;96944.34;5007566;28;19934;-62
2023/12/23 08:10:25;;;;;;;;;;;;;;;8.16;74.78;96942.59;5003406;28;19936;-61
2023/12/23 08:13:13;;;;;;;;;;;;;;;8.14;74.78;96939.41;5004667;28;19937;-62
2023/12/23 08:16:02;;;;;;;;;;;;;;;8.06;74.81;96949.13;5004252;28;19925;-63
2023/12/23 08:18:50;;;;;;;;;;;;;;;8.10;75.19;96949.28;4999188;28;19937;-62
2023/12/23 08:21:38;;;;;;;;;;;;;;;8.04;74.93;96959.47;5000222;28;20295;-63
2023/12/23 08:24:26;;;;;;;;;;;;;;;8.10;74.86;96949.28;5006719;28;19933;-63
2023/12/23 08:27:14;;;;;;;;;;;;;;;8.25;74.36;96956.13;5006526;28;20012;-63
2023/12/23 08:30:02;;;;;;;;;;;;;;;8.25;74.10;96940.66;5004510;28;19933;-62
2023/12/23 08:32:52;;;;;;;;;;;;;;;8.28;74.14;96937.34;5012396;28;19962;-62
2023/12/23 08:35:44;;;;;;;;;;;;;;;8.36;74.36;96942.00;5006244;28;19968;-62
2023/12/23 08:38:32;;;;;;;;;;;;;;;8.45;73.92;96943.88;5008505;28;19930;-63
2023/12/23 08:41:20;;;;;;;;;;;;;;;8.40;73.10;96937.50;5011531;28;19932;-61
2023/12/23 08:44:08;;;;;;;;;;;;;;;8.44;73.47;96939.59;5011345;28;19942;-63
2023/12/23 08:46:56;;;;;;;;;;;;;;;8.40;73.26;96940.22;5007006;28;19933;-62
2023/12/23 08:49:46;;;;;;;;;;;;;;;8.41;73.00;96913.94;5009303;28;20532;-62
2023/12/23 08:52:34;;;;;;;;;;;;;;;8.44;73.39;96920.63;5006306;28;19934;-61
2023/12/23 08:55:22;;;;;;;;;;;;;;;8.47;72.71;96941.63;5008610;28;19933;-64
2023/12/23 08:58:10;;;;;;;;;;;;;;;8.39;73.01;96910.78;5010040;28;19964;-62
2023/12/23 09:00:58;;;;;;;;;;;;;;;8.47;73.03;96909.16;5004709;28;19933;-61
2023/12/23 09:03:46;;;;;;;;;;;;;;;8.42;72.64;96934.50;5009106;28;19929;-63
2023/12/23 09:06:35;;;;;;;;;;;;;;;8.37;72.63;96919.22;5009467;28;19937;-63
2023/12/23 09:09:23;;;;;;;;;;;;;;;8.42;72.58;96923.66;5011049;28;19969;-61
2023/12/23 09:12:11;;;;;;;;;;;;;;;8.44;72.32;96926.06;5011546;28;20130;-61
2023/12/23 09:15:00;;;;;;;;;;;;;;;8.42;72.18;96920.19;5006004;28;19980;-62
2023/12/23 09:17:48;;;;;;;;;;;;;;;8.34;71.91;96927.94;5004569;28;20461;-62
2023/12/23 09:20:37;;;;;;;;;;;;;;;8.36;72.51;96933.88;5003479;28;19977;-64
2023/12/23 09:23:26;;;;;;;;;;;;;;;8.29;72.05;96947.03;5008188;28;20498;-61
2023/12/23 09:26:14;;;;;;;;;;;;;;;8.39;72.15;96940.53;5009188;28;19926;-61
2023/12/23 09:29:03;;;;;;;;;;;;;;;8.40;72.68;96929.38;5008326;28;20478;-62
2023/12/23 09:31:51;;;;;;;;;;;;;;;8.45;72.72;96938.47;5002993;28;19930;-62
2023/12/23 09:34:40;;;;;;;;;;;;;;;8.45;72.77;96957.41;5011147;28;19929;-62
2023/12/23 09:37:28;;;;;;;;;;;;;;;8.53;72.00;96946.59;5009764;28;19933;-62
2023/12/23 09:40:18;;;;;;;;;;;;;;;8.54;72.23;96963.63;5010119;28;20000;-62
2023/12/23 09:43:06;;;;;;;;;;;;;;;8.64;72.81;96952.44;4999253;28;19929;-61
2023/12/23 09:45:56;;;;;;;;;;;;;;;8.63;72.27;96929.22;5009825;28;19937;-62
2023/12/23 09:48:44;;;;;;;;;;;;;;;8.62;71.96;96938.41;5008943;28;19930;-62
2023/12/23 09:51:33;;;;;;;;;;;;;;;8.66;71.94;96948.28;5005237;28;19937;-61
2023/12/23 09:54:21;;;;;;;;;;;;;;;8.50;71.78;96939.09;5010739;28;19925;-61
2023/12/23 09:57:11;;;;;;;;;;;;;;;8.58;72.13;96949.13;5007084;28;19926;-61
2023/12/23 09:59:59;;;;;;;;;;;;;;;8.61;72.21;96951.16;5007475;28;20034;-62
2023/12/23 10:02:47;;;;;;;;;;;;;;;8.62;72.16;96957.38;5008670;28;19944;-63
2023/12/23 10:05:39;;;;;;;;;;;;;;;8.73;71.62;96950.50;5011184;28;20152;-64
2023/12/23 10:08:27;;;;;;;;;;;;;;;8.69;71.11;96954.19;5002829;28;20303;-61
2023/12/23 10:11:15;;;;;;;;;;;;;;;8.61;71.49;96950.38;5008182;28;22087;-61
2023/12/23 10:14:05;;;;;;;;;;;;;;;8.63;71.70;96945.44;5009647;28;20688;-62
2023/12/23 10:16:53;;;;;;;;;;;;;;;8.67;71.83;96946.38;5001893;28;19926;-61
2023/12/23 10:19:41;;;;;;;;;;;;;;;8.63;71.68;96934.63;5008903;28;19929;-61
2023/12/23 10:22:30;;;;;;;;;;;;;;;8.72;71.56;96911.00;5006007;28;19956;-61
2023/12/23 10:25:18;;;;;;;;;;;;;;;8.59;71.59;96920.13;5008720;28;19937;-61
2023/12/23 10:28:07;;;;;;;;;;;;;;;8.55;71.42;96940.84;5007886;28;20399;-63
2023/12/23 10:30:57;;;;;;;;;;;;;;;8.52;72.06;96936.06;5009843;28;19960;-64
2023/12/23 10:33:46;;;;;;;;;;;;;;;8.64;71.67;96933.50;5006407;28;20663;-63
2023/12/23 10:36:34;;;;;;;;;;;;;;;8.61;71.12;96936.84;5002479;28;19926;-64
2023/12/23 10:39:22;;;;;;;;;;;;;;;8.62;71.30;96939.22;5006602;28;19941;-64
2023/12/23 10:42:11;;;;;;;;;;;;;;;8.66;70.79;96939.38;5001308;28;19926;-64
2023/12/23 10:44:59;;;;;;;;;;;;;;;8.65;70.75;96935.88;5009908;28;19929;-64
2023/12/23 10:47:48;;;;;;;;;;;;;;;8.70;70.34;96937.63;5006871;28;19933;-62
2023/12/23 10:50:36;;;;;;;;;;;;;;;8.62;70.80;96924.88;5007388;28;19925;-62
2023/12/23 10:53:25;;;;;;;;;;;;;;;8.71;70.68;96936.50;5006253;28;19945;-62
2023/12/23 10:56:13;;;;;;;;;;;;;;;8.73;70.62;96928.84;5009060;28;19970;-63
2023/12/23 10:59:03;;;;;;;;;;;;;;;8.77;70.51;96946.03;5007424;28;19926;-63
2023/12/23 11:01:51;;;;;;;;;;;;;;;8.84;70.26;96919.28;5005707;28;19947;-63
2023/12/23 11:04:40;;;;;;;;;;;;;;;8.87;70.64;96940.28;5008044;28;19967;-63
2023/12/23 11:07:30;;;;;;;;;;;;;;;8.90;70.10;96923.38;5006666;28;19933;-64
2023/12/23 11:10:18;;;;;;;;;;;;;;;8.90;70.27;96926.09;5004722;28;19937;-64
2023/12/23 11:13:07;;;;;;;;;;;;;;;8.97;70.32;96906.63;5003042;28;19935;-64
2023/12/23 11:15:56;;;;;;;;;;;;;;;9.04;70.40;96928.56;5008875;28;19968;-63
2023/12/23 11:18:44;;;;;;;;;;;;;;;9.04;70.18;96925.88;5004993;28;19929;-63
2023/12/23 11:21:35;;;;;;;;;;;;;;;9.04;69.89;96934.00;5002411;28;19930;-63
2023/12/23 11:24:33;;;;;;;;;;;;;;;9.10;69.80;96942.72;5002017;28;19937;-62
2023/12/23 11:27:33;;;;;;;;;;;;;;;9.07;70.03;96930.66;5006083;28;19936;-63
2023/12/23 11:30:21;;;;;;;;;;;;;;;9.03;70.30;96920.78;5004763;28;19925;-63
2023/12/23 11:33:09;;;;;;;;;;;;;;;9.02;70.38;96940.88;5008320;28;19925;-62
2023/12/23 11:35:58;;;;;;;;;;;;;;;9.09;70.56;96933.03;5006095;28;19972;-62
2023/12/23 11:38:50;;;;;;;;;;;;;;;9.06;70.88;96931.78;4998096;28;20016;-63
2023/12/23 11:41:40;;;;;;;;;;;;;;;9.10;70.83;96932.69;5002788;28;20023;-63
2023/12/23 11:44:28;;;;;;;;;;;;;;;9.16;70.87;96939.53;5008696;28;19925;-63
2023/12/23 11:47:17;;;;;;;;;;;;;;;9.19;70.82;96919.13;5000611;28;19936;-63
2023/12/23 11:50:06;;;;;;;;;;;;;;;9.21;70.83;96927.69;5005505;28;19948;-62
2023/12/23 11:52:54;;;;;;;;;;;;;;;9.22;70.41;96913.06;5006810;28;20379;-61
2023/12/23 11:55:44;;;;;;;;;;;;;;;9.08;70.20;96934.94;5002783;28;19932;-61
2023/12/23 11:58:32;;;;;;;;;;;;;;;9.10;70.38;96932.69;5006311;28;19937;-63
2023/12/23 12:01:20;;;;;;;;;;;;;;;9.03;70.82;96928.91;5001934;28;20023;-61
2023/12/23 12:04:09;;;;;;;;;;;;;;;8.92;71.02;96925.75;5004902;28;19972;-64
2023/12/23 12:06:57;;;;;;;;;;;;;;;8.89;71.03;96919.09;5004996;28;19937;-61
2023/12/23 12:09:46;;;;;;;;;;;;;;;9.01;71.77;96945.50;5008523;28;20008;-63
2023/12/23 12:12:35;;;;;;;;;;;;;;;8.99;71.17;96936.09;5001572;28;20028;-61
2023/12/23 12:15:23;;;;;;;;;;;;;;;9.02;71.18;96955.22;5003115;28;19934;-61
2023/12/23 12:18:11;;;;;;;;;;;;;;;9.02;70.90;96944.38;5003136;28;20002;-61
2023/12/23 12:21:00;;;;;;;;;;;;;;;9.08;70.56;96928.72;5004802;28;19930;-61
2023/12/23 12:23:51;;;;;;;;;;;;;;;9.03;70.11;96932.41;5001422;28;19925;-62
2023/12/23 12:26:39;;;;;;;;;;;;;;;9.13;70.64;96933.97;5005038;28;19957;-60
2023/12/23 12:29:29;;;;;;;;;;;;;;;9.09;70.13;96952.78;5005187;28;20075;-61
2023/12/23 12:32:17;;;;;;;;;;;;;;;9.08;69.97;96934.16;5004175;28;19937;-61
2023/12/23 12:35:06;;;;;;;;;;;;;;;9.12;69.79;96952.16;5002525;28;19929;-61
2023/12/23 12:37:54;;;;;;;;;;;;;;;9.14;70.15;96951.81;5002407;28;19934;-61
2023/12/23 12:40:42;;;;;;;;;;;;;;;9.16;69.63;96957.69;5001235;28;19926;-61
2023/12/23 12:43:32;;;;;;;;;;;;;;;9.08;69.78;96961.25;5005724;28;19972;-61
2023/12/23 12:46:22;;;;;;;;;;;;;;;9.08;69.71;96953.91;5002766;28;19929;-61
2023/12/23 12:49:11;;;;;;;;;;;;;;;9.01;69.54;96955.53;5001638;28;20157;-61
2023/12/23 12:51:59;;;;;;;;;;;;;;;9.04;69.99;96949.47;5003386;28;19929;-61
2023/12/23 12:54:47;;;;;;;;;;;;;;;8.99;70.24;96953.13;5005629;28;19925;-61
2023/12/23 12:57:35;;;;;;;;;;;;;;;9.02;70.62;96966.03;5003669;28;20009;-61
2023/12/23 13:00:23;;;;;;;;;;;;;;;8.97;70.68;96966.22;5004488;28;19929;-61
2023/12/23 13:03:12;;;;;;;;;;;;;;;8.93;71.05;96979.59;5002355;28;20012;-61
2023/12/23 13:06:02;;;;;;;;;;;;;;;8.95;70.64;96968.47;5010587;28;20334;-61
2023/12/23 13:08:53;;;;;;;;;;;;;;;8.93;70.74;96971.47;5015919;28;19929;-61
2023/12/23 13:11:40;;;;;;;;;;;;;;;9.05;70.83;96987.06;5003526;28;20348;-62
2023/12/23 13:14:28;;;;;;;;;;;;;;;9.11;70.75;96979.56;5004799;28;20287;-62
2023/12/23 13:17:16;;;;;;;;;;;;;;;9.12;71.05;97000.13;5004116;28;20368;-62
2023/12/23 13:20:11;;;;;;;;;;;;;;;9.21;70.48;97000.88;5007594;28;20407;-62
2023/12/23 13:22:59;;;;;;;;;;;;;;;9.25;70.43;96987.47;5009998;28;19930;-62
2023/12/23 13:25:49;;;;;;;;;;;;;;;9.30;69.87;96985.38;5010857;28;20024;-63
2023/12/23 13:28:37;;;;;;;;;;;;;;;9.28;69.76;97000.38;5002394;28;19925;-62
2023/12/23 13:31:25;;;;;;;;;;;;;;;9.32;69.67;97004.03;5008659;28;20032;-62
2023/12/23 13:34:13;;;;;;;;;;;;;;;9.27;69.40;97015.03;5012642;28;19934;-62
2023/12/23 13:37:03;;;;;;;;;;;;;;;9.22;69.54;97001.69;5009719;28;19953;-61
2023/12/23 13:39:52;;;;;;;;;;;;;;;9.24;69.62;97019.22;5008831;28;20394;-61
2023/12/23 13:42:40;;;;;;;;;;;;;;;9.21;69.64;97025.25;5009632;28;20379;-62
2023/12/23 13:45:28;;;;;;;;;;;;;;;9.17;69.71;97006.16;5010758;28;19952;-62
2023/12/23 13:48:16;;;;;;;;;;;;;;;9.20;69.45;96999.28;4998590;28;19933;-62
2023/12/23 13:51:04;;;;;;;;;;;;;;;9.15;69.16;97026.56;5008250;28;20498;-62
2023/12/23 13:53:55;;;;;;;;;;;;;;;9.13;69.59;97031.53;5001772;28;20071;-61
2023/12/23 13:56:43;;;;;;;;;;;;;;;9.09;69.54;97033.28;5007271;28;19925;-61
2023/12/23 13:59:31;;;;;;;;;;;;;;;9.11;69.44;97036.47;5008249;28;20310;-61
2023/12/23 14:02:19;;;;;;;;;;;;;;;9.07;69.67;97039.03;5008197;28;19938;-62
2023/12/23 14:05:07;;;;;;;;;;;;;;;9.13;69.93;97047.78;5006789;28;20088;-62
2023/12/23 14:07:55;;;;;;;;;;;;;;;9.14;68.81;97058.28;5008542;28;20024;-63
2023/12/23 14:10:45;;;;;;;;;;;;;;;9.11;68.61;97061.66;5008700;28;19930;-62
2023/12/23 14:13:35;;;;;;;;;;;;;;;9.11;68.33;97067.06;5007873;28;19929;-61
2023/12/23 14:16:24;;;;;;;;;;;;;;;9.12;68.27;97065.16;5008257;28;19933;-61
2023/12/23 14:19:12;;;;;;;;;;;;;;;9.24;68.67;97065.28;5006901;28;20051;-62
2023/12/23 14:22:00;;;;;;;;;;;;;;;9.25;67.99;97058.75;5005904;28;19945;-61
2023/12/23 14:24:48;;;;;;;;;;;;;;;9.29;67.27;97075.94;5007303;28;19933;-61
2023/12/23 14:27:39;;;;;;;;;;;;;;;9.37;67.18;97061.56;5009749;28;20005;-62
2023/12/23 14:30:27;;;;;;;;;;;;;;;9.45;67.01;97085.16;5006921;28;20311;-63
2023/12/23 14:33:15;;;;;;;;;;;;;;;9.48;66.46;97097.28;5008619;28;19925;-61
2023/12/23 14:36:03;;;;;;;;;;;;;;;9.39;66.31;97091.06;5007766;28;19926;-62
2023/12/23 14:38:51;;;;;;;;;;;;;;;9.43;67.12;97087.41;5004573;28;20012;-62
2023/12/23 14:41:39;;;;;;;;;;;;;;;9.45;67.00;97097.91;5008415;28;19944;-63
2023/12/23 14:44:29;;;;;;;;;;;;;;;9.39;66.36;97102.72;5005172;28;19930;-62
2023/12/23 14:47:18;;;;;;;;;;;;;;;9.44;67.53;97088.19;5006904;28;20020;-61
2023/12/23 14:50:06;;;;;;;;;;;;;;;9.48;67.19;97101.88;5007759;28;20372;-62